Portada
METAR-TAF:

METAR-TAF

Aeroports :

Dzaoudzi, Mayotte

latitud: 12-48S, longitud: 045-17E, altitud: 8 m

Observació

L'informe es va fer fa 23 minuts, a les 09:30 UTC
Vent 6 kt del Est, variant entre Nord-Est i Est/Sud-Est
Temperatura 32°C
Humitat 71%
Pressió 1012 hPa
Visibilitat 10 km o més

METAR: FMCZ 140930Z AUTO 09006KT 050V120 9999 ///CB 32/26 Q1012 TEMPO TSRA

Hora: 12:53 (09:53 UTC)

Pronòstic

L'informe es va fer fa 4 hores i 53 minuts, a les 05:00 UTC
Pronòstic vàlid del 14 a les 06 UTC al 15 a les 06 UTC
Vent 6 kt del Sud/Sud-Est
Visibilitat 10 km o més
Escasses núvols a una alçada de 2000 ft, Cumulonimbus.
Núvols disperses a una alçada de 2500 ft, Cumulus congestus.
Cel ennuvolat a una alçada de 17000 ft
Probabilitat 30% :
Temporalment
l' 14 a les 10 UTC al 14 a les 23 UTC
tempesta, pluja

TAF: FMCZ 140500Z 1406/1506 15006KT 9999 FEW020CB SCT025TCU BKN170 PROB30 TEMPO 1410/1423 TSRA

Observacions i pronòstics meteorològics de més de 4000 aeroports (METAR i TAF).

Les estacions disponibles són els punts grocs i vermells al mapa.

Posi el ratolí al punt desitjat per veure el nom de l'estació.

Feu clic per veure les observacions i els pronòstics meteorològics.

Per canviar el mapa: feu clic els botons verds amb una creu de color negre per apropar; al botó verd amb un guió per allunyar la imatge; o en les fletxes verdes per a mapes adjacents.


METAR-TAF: